• Join FlightAware (Why Join?)
  • Login
  • US Flag 
01:22PM EDT


 

Airport Tracker/Info


-or-


 

Live Flight TrackerFlight Track Log ✈ UAL582 ✈ 03-Jul-2013 ✈ KORD - KTPA

Flight Track Log - Related Links

Times and Time Zones

All times are in EDT time to prevent confusion due to time zone crossing. See the UAL582 flight status page for this flight to view local times or setup timezone preferences in your user account.

Time Position Orientation Groundspeed Altitude Reporting Facility
EDT Latitude Longitude Course Direction KTS MPH feet Rate Location/Type
08:54PM 41.9000 -87.9167 180° South 146 168 3,800  Level Chicago TRACON
08:55PM 41.8028 -87.9014 173° South 239 275 6,700 2,340 Climbing Chicago Center
08:56PM 41.7278 -87.8958 177° South 268 308 10,100 3,000 Climbing Chicago Center
08:57PM 41.4667 -87.6694 176° South  Level Estimated
08:57PM 41.6494 -87.8928 178° South 279 321 12,900  Level Chicago Center
08:58PM 41.3637 -87.6224 180° South  Level Estimated
08:58PM 41.5661 -87.8781 172° South 302 348 14,900  Level Chicago Center
08:59PM 41.2606 -87.5756 180° South  Level Estimated
08:59PM 41.4464 -87.8492 170° South 360 414 16,100  Level Chicago Center
09:00PM 41.3353 -87.8222 170° South 395 455 17,900 1,800 Climbing Chicago Center
09:01PM 41.2228 -87.7961 170° South 406 467 19,900 1,740 Climbing Chicago Center
09:02PM 41.1078 -87.7694 170° South 414 476 21,600 1,620 Climbing Chicago Center
09:03PM 40.9908 -87.7411 170° South 423 487 23,300 1,620 Climbing Chicago Center
09:04PM 40.8722 -87.7139 170° South 431 496 25,000 1,860 Climbing Chicago Center
09:05PM 40.7325 -87.6811 170° South 428 493 27,200 2,400 Climbing Chicago Center
09:07PM 40.6306 -87.6572 170° South 371 427 30,000 2,400 Climbing Chicago Center
09:08PM 40.5469 -87.6375 170° South 312 359 32,200 1,680 Climbing Chicago Center
09:09PM 40.4647 -87.6183 170° South 301 346 33,500 840 Climbing Chicago Center
09:10PM 40.3833 -87.6008 171° South 298 343 34,000 240 Climbing Chicago Center
09:11PM 40.2947 -87.5792 169° South 321 369 34,000  Level Chicago Center
09:12PM 40.1814 -87.5536 170° South 350 403 34,000  Level Chicago Center
09:12PM 40.1208 -87.5406 171° South 354 407 34,000  Level Indianapolis Center
09:13PM 40.0242 -87.5189 170° South 355 409 34,000  Level Indianapolis Center
09:14PM 39.9269 -87.4981 171° South 355 409 34,000  Level Indianapolis Center
09:15PM 39.8103 -87.4706 170° South 358 412 34,000  Level Indianapolis Center
09:16PM 39.7122 -87.4492 170° South 359 413 34,000  Level Indianapolis Center
09:17PM 39.6144 -87.4272 170° South 359 413 34,000  Level Indianapolis Center
09:19PM 39.5167 -87.4053 170° South 360 414 34,000  Level Indianapolis Center
09:20PM 39.4169 -87.3825 170° South 362 417 34,000  Level Indianapolis Center
09:21PM 39.3172 -87.3617 171° South 364 419 34,000  Level Indianapolis Center
09:22PM 39.2169 -87.3389 170° South 366 421 34,000  Level Indianapolis Center
09:23PM 39.1133 -87.3164 170° South 364 419 34,000  Level Indianapolis Center
09:24PM 39.0117 -87.2936 170° South 367 422 34,000  Level Indianapolis Center
09:25PM 38.8906 -87.2661 170° South 368 423 34,000  Level Indianapolis Center
09:26PM 38.7889 -87.2444 171° South 368 423 34,000  Level Indianapolis Center
09:27PM 38.6881 -87.2225 170° South 367 422 34,000  Level Indianapolis Center
09:28PM 38.5864 -87.2003 170° South 370 426 34,100 240 Climbing Indianapolis Center
09:29PM 38.4856 -87.1664 165° South 372 428 34,500 420 Climbing Indianapolis Center
09:30PM 38.3747 -87.1236 163° South 376 433 35,000 240 Climbing Indianapolis Center
09:31PM 38.2756 -87.0836 162° South 376 433 35,000  Level Indianapolis Center
09:32PM 38.1733 -87.0453 164° South 374 430 35,000  Level Indianapolis Center
09:33PM 38.0722 -87.0069 163° South 377 434 35,000  Level Indianapolis Center
09:34PM 37.9719 -86.9678 163° South 375 432 35,000  Level Indianapolis Center
09:35PM 37.8714 -86.9294 163° South 376 433 35,000  Level Indianapolis Center
09:36PM 37.7703 -86.8892 163° South 378 435 35,000  Level Indianapolis Center
09:37PM 37.6692 -86.8533 164° South 375 432 35,000  Level Indianapolis Center
09:38PM 37.5678 -86.8167 164° South 377 434 35,000  Level Indianapolis Center
09:39PM 37.4531 -86.7742 164° South 377 434 35,000  Level Indianapolis Center
09:40PM 37.3517 -86.7344 163° South 378 435 35,000  Level Indianapolis Center
09:41PM 37.2500 -86.6953 163° South 378 435 35,000  Level Indianapolis Center
09:42PM 37.1475 -86.6572 164° South 379 436 35,000  Level Indianapolis Center
09:43PM 37.0472 -86.6200 163° South 372 428 35,000  Level Indianapolis Center
09:44PM 36.9453 -86.5808 163° South 376 433 35,000  Level Indianapolis Center
09:45PM 36.8425 -86.5358 161° South 387 445 35,100  Climbing Indianapolis Center
09:46PM 36.7389 -86.4917 161° South 390 449 35,100 -60 Level Indianapolis Center
09:47PM 36.6367 -86.4533 163° South 382 440 35,000 -60 Descending Indianapolis Center
09:48PM 36.5322 -86.4156 164° South 384 442 35,000  Level Indianapolis Center
09:49PM 36.4306 -86.3789 164° South 377 434 35,000  Level Indianapolis Center
09:50PM 36.3058 -86.3317 163° South 382 440 35,000  Level Memphis Center
09:51PM 36.2047 -86.2981 165° South 382 440 35,000  Level Memphis Center
09:52PM 36.1014 -86.2622 164° South 382 440 35,000  Level Memphis Center
09:53PM 36.0000 -86.2236 163° South 382 440 35,000  Level Memphis Center
09:54PM 35.8944 -86.1881 165° South 387 445 35,000  Level Memphis Center
09:56PM 35.7339 -86.1314 164° South 399 459 35,000  Level Atlanta Center
09:57PM 35.6322 -86.0956 164° South 389 448 35,000  Level Atlanta Center
09:58PM 35.5264 -86.0597 165° South 389 448 35,000  Level Atlanta Center
09:59PM 35.4208 -86.0189 163° South 400 460 35,000  Level Atlanta Center
10:00PM 35.3025 -85.9806 165° South 400 460 35,000  Level Atlanta Center
10:01PM 35.1967 -85.9425 164° South 400 460 35,000  Level Atlanta Center
10:02PM 35.1031 -85.9097 164° South 394 453 35,000  Level Atlanta Center
10:03PM 34.9953 -85.8719 164° South 394 453 35,000  Level Atlanta Center
10:04PM 34.9019 -85.8319 161° South 399 459 35,000  Level Atlanta Center
10:05PM 34.7814 -85.7939 165° South 399 459 35,000  Level Atlanta Center
10:06PM 34.6736 -85.7564 164° South 399 459 35,000  Level Atlanta Center
10:07PM 34.5633 -85.7186 164° South 399 459 35,000  Level Atlanta Center
10:08PM 34.4553 -85.6814 164° South 399 459 35,000  Level Atlanta Center
10:09PM 34.3431 -85.6414 164° South 399 459 35,000  Level Atlanta Center
10:10PM 34.2331 -85.6017 163° South 399 459 35,000  Level Atlanta Center
10:11PM 34.1250 -85.5644 164° South 399 459 35,000  Level Atlanta Center
10:12PM 34.0169 -85.5275 164° South 399 459 35,000  Level Atlanta Center
10:13PM 33.9089 -85.4906 164° South 399 459 35,000  Level Atlanta Center
10:14PM 33.7986 -85.4536 164° South 404 465 35,000  Level Atlanta Center
10:15PM 33.6864 -85.4169 165° South 416 479 35,000  Level Atlanta Center
10:16PM 33.5783 -85.3778 163° South 416 479 35,000  Level Atlanta Center
10:17PM 33.4658 -85.3411 165° South 411 473 35,000  Level Atlanta Center
10:18PM 33.3536 -85.3022 164° South 416 479 35,000  Level Atlanta Center
10:19PM 33.2433 -85.2633 164° South 416 479 35,000  Level Atlanta Center
10:20PM 33.1311 -85.2244 164° South 416 479 35,000  Level Atlanta Center
10:21PM 33.0208 -85.1833 163° South 416 479 35,000  Level Atlanta Center
10:22PM 32.9064 -85.1472 165° South 416 479 35,000  Level Atlanta Center
10:23PM 32.8086 -85.1164 165° South 417 480 35,000  Level Atlanta Center
10:24PM 32.6900 -85.0706 162° South 415 478 35,000  Level Atlanta Center
10:25PM 32.5692 -85.0297 164° South 420 483 35,000  Level Atlanta Center
10:26PM 32.4589 -84.9917 164° South 420 483 35,000  Level Atlanta Center
10:27PM 32.3422 -84.9558 165° South 420 483 35,000 300 Level Atlanta Center
10:28PM 32.2297 -84.9228 166° South 420 483 35,600 840 Climbing Atlanta Center
10:29PM 32.1172 -84.8825 163° South 420 483 36,700 360 Climbing Atlanta Center
10:31PM 31.8931 -84.8108 165° South 418 481 36,800 -240 Climbing Jacksonville Center
10:32PM 31.7792 -84.7622 160° South 418 481 36,100 -840 Descending Jacksonville Center
10:33PM 31.6669 -84.7136 160° South 423 487 35,200 -600 Descending Jacksonville Center
10:34PM 31.5550 -84.6650 160° South 428 493 35,000 -120 Descending Jacksonville Center
10:35PM 31.4408 -84.6117 158° South 428 493 35,000  Level Jacksonville Center
10:36PM 31.3267 -84.5608 159° South 434 499 35,000  Level Jacksonville Center
10:37PM 31.2106 -84.5103 160° South 439 505 35,000  Level Jacksonville Center
10:38PM 31.0961 -84.4575 158° South 444 511 35,000  Level Jacksonville Center
10:39PM 30.9819 -84.4047 158° South 444 511 35,000  Level Jacksonville Center
10:40PM 30.8678 -84.3569 160° South 444 511 35,000  Level Jacksonville Center
10:41PM 30.7558 -84.2875 152° Southeast 449 517 35,000  Level Jacksonville Center
10:42PM 30.6500 -84.2133 149° Southeast 449 517 35,000  Level Jacksonville Center
10:43PM 30.5486 -84.1397 148° Southeast 444 511 35,000  Level Jacksonville Center
10:44PM 30.4492 -84.0636 147° Southeast 434 499 35,000 -60 Level Jacksonville Center
10:45PM 30.3453 -83.9925 149° Southeast 429 494 34,900 -60 Descending Jacksonville Center
10:46PM 30.2414 -83.9192 149° Southeast 429 494 34,900  Level Jacksonville Center
10:47PM 30.1397 -83.8486 149° Southeast 429 494 34,900  Level Jacksonville Center
10:48PM 30.0339 -83.7756 149° Southeast 429 494 35,000  Climbing Jacksonville Center
10:49PM 29.9258 -83.7003 149° Southeast 435 501 35,000  Level Jacksonville Center
10:50PM 29.8156 -83.6372 154° Southeast 440 506 35,000 -60 Level Jacksonville Center
10:51PM 29.6944 -83.6147 171° South 433 498 34,900 -900 Descending Jacksonville Center
10:52PM 29.5736 -83.5875 169° South 433 498 33,300 -2,160 Descending Jacksonville Center
10:53PM 29.4547 -83.5628 170° South 438 504 30,600 -2,100 Descending Jacksonville Center
10:54PM 29.3317 -83.5358 169° South 443 510 29,100 -1,440 Descending Jacksonville Center
10:55PM 29.2128 -83.5042 167° South 448 516 27,800 -1,320 Descending Jacksonville Center
10:56PM 29.1067 -83.4392 152° Southeast 428 493 26,500 -1,620 Descending Jacksonville Center
10:57PM 29.0067 -83.3744 150° Southeast 428 493 24,600 -2,100 Descending Jacksonville Center
10:58PM 28.9131 -83.3172 152° Southeast 417 480 22,400 -2,040 Descending Jacksonville Center
11:00PM 28.7667 -83.2167 149° Southeast 395 455 19,500 -1,680 Descending Tampa TRACON
11:01PM 28.6833 -83.1667 152° Southeast 366 421 18,200 -1,380 Descending Tampa TRACON
11:02PM 28.5833 -83.1167 156° South 311 358 16,700 -1,380 Descending Tampa TRACON
11:03PM 28.5167 -83.0667 147° Southeast 303 349 15,400 -1,380 Descending Tampa TRACON
11:04PM 28.4500 -83.0167 147° Southeast 292 336 14,000 -1,500 Descending Tampa TRACON
11:05PM 28.3833 -82.9833 156° South 281 323 12,400 -1,560 Descending Tampa TRACON
11:06PM 28.3167 -82.9333 147° Southeast 274 315 10,900 -1,620 Descending Tampa TRACON
11:07PM 28.2667 -82.8667 130° Southeast 277 319 9,000 -1,860 Descending Tampa TRACON
11:08PM 28.2833 -82.7833 77° East 273 314 7,000 -1,800 Descending Tampa TRACON
11:09PM 28.2833 -82.6833 90° East 269 310 5,500 -1,500 Descending Tampa TRACON
11:10PM 28.2500 -82.6167 120° Southeast 249 287 4,100 -1,260 Descending Tampa TRACON
11:11PM 28.2167 -82.5500 120° Southeast 243 280 3,000 -600 Descending Tampa TRACON
11:12PM 28.1667 -82.5167 150° Southeast 199 229 3,000 -300 Level Tampa TRACON
11:13PM 28.1167 -82.5167 180° South 184 212 2,400 -660 Descending Tampa TRACON
11:14PM 28.0667 -82.5333 196° South 158 182 1,700 -720 Descending Tampa TRACON
11:15PM 28.0333 -82.5333 180° South 124 143 1,000 -720 Descending Tampa TRACON